sensor_id;sensor_type;location;lat;lon;timestamp;P1;durP1;ratioP1;P2;durP2;ratioP2
11100;SDS011;5604;50.722;7.078;2023-02-28T00:01:11;4.23;;;3.40;;
11100;SDS011;5604;50.722;7.078;2023-02-28T00:03:39;4.70;;;3.40;;
11100;SDS011;5604;50.722;7.078;2023-02-28T00:06:08;5.30;;;3.53;;
11100;SDS011;5604;50.722;7.078;2023-02-28T00:08:36;6.53;;;3.87;;
11100;SDS011;5604;50.722;7.078;2023-02-28T00:11:06;5.63;;;3.63;;
11100;SDS011;5604;50.722;7.078;2023-02-28T00:13:36;6.13;;;4.03;;
11100;SDS011;5604;50.722;7.078;2023-02-28T00:16:07;7.43;;;3.57;;
11100;SDS011;5604;50.722;7.078;2023-02-28T00:18:38;5.07;;;3.37;;
11100;SDS011;5604;50.722;7.078;2023-02-28T00:21:07;5.50;;;3.47;;
11100;SDS011;5604;50.722;7.078;2023-02-28T00:23:35;4.17;;;3.60;;
11100;SDS011;5604;50.722;7.078;2023-02-28T00:26:04;4.73;;;3.77;;
11100;SDS011;5604;50.722;7.078;2023-02-28T00:28:32;4.23;;;3.00;;
11100;SDS011;5604;50.722;7.078;2023-02-28T00:31:00;4.67;;;3.40;;
11100;SDS011;5604;50.722;7.078;2023-02-28T00:33:28;5.37;;;3.10;;
11100;SDS011;5604;50.722;7.078;2023-02-28T00:36:05;6.47;;;3.93;;
11100;SDS011;5604;50.722;7.078;2023-02-28T00:38:35;5.17;;;3.80;;
11100;SDS011;5604;50.722;7.078;2023-02-28T00:41:03;6.53;;;3.63;;
11100;SDS011;5604;50.722;7.078;2023-02-28T00:43:32;5.70;;;3.57;;
11100;SDS011;5604;50.722;7.078;2023-02-28T00:46:01;9.17;;;3.97;;
11100;SDS011;5604;50.722;7.078;2023-02-28T00:48:30;5.60;;;3.87;;
11100;SDS011;5604;50.722;7.078;2023-02-28T00:50:58;7.77;;;3.80;;
11100;SDS011;5604;50.722;7.078;2023-02-28T00:53:28;5.13;;;3.60;;
11100;SDS011;5604;50.722;7.078;2023-02-28T00:55:56;5.20;;;3.77;;
11100;SDS011;5604;50.722;7.078;2023-02-28T00:58:25;5.57;;;3.67;;
11100;SDS011;5604;50.722;7.078;2023-02-28T01:00:53;4.83;;;3.60;;
11100;SDS011;5604;50.722;7.078;2023-02-28T01:03:21;7.20;;;3.83;;
11100;SDS011;5604;50.722;7.078;2023-02-28T01:05:50;5.27;;;3.57;;
11100;SDS011;5604;50.722;7.078;2023-02-28T01:08:19;5.40;;;3.77;;
11100;SDS011;5604;50.722;7.078;2023-02-28T01:10:50;5.63;;;3.50;;
11100;SDS011;5604;50.722;7.078;2023-02-28T01:13:19;5.23;;;3.50;;
11100;SDS011;5604;50.722;7.078;2023-02-28T01:15:49;3.67;;;3.30;;
11100;SDS011;5604;50.722;7.078;2023-02-28T01:18:19;4.33;;;3.50;;
11100;SDS011;5604;50.722;7.078;2023-02-28T01:20:47;7.17;;;3.70;;
11100;SDS011;5604;50.722;7.078;2023-02-28T01:23:18;6.90;;;3.80;;
11100;SDS011;5604;50.722;7.078;2023-02-28T01:25:46;4.53;;;3.33;;
11100;SDS011;5604;50.722;7.078;2023-02-28T01:28:16;4.80;;;3.30;;
11100;SDS011;5604;50.722;7.078;2023-02-28T01:30:47;4.27;;;3.50;;
11100;SDS011;5604;50.722;7.078;2023-02-28T01:33:15;8.47;;;3.93;;
11100;SDS011;5604;50.722;7.078;2023-02-28T01:35:44;6.17;;;3.77;;
11100;SDS011;5604;50.722;7.078;2023-02-28T01:38:12;5.57;;;3.87;;
11100;SDS011;5604;50.722;7.078;2023-02-28T01:40:48;4.07;;;3.23;;
11100;SDS011;5604;50.722;7.078;2023-02-28T01:43:19;6.87;;;3.77;;
11100;SDS011;5604;50.722;7.078;2023-02-28T01:45:49;6.20;;;3.90;;
11100;SDS011;5604;50.722;7.078;2023-02-28T01:48:19;6.93;;;3.80;;
11100;SDS011;5604;50.722;7.078;2023-02-28T01:50:49;3.97;;;3.20;;
11100;SDS011;5604;50.722;7.078;2023-02-28T01:53:19;4.87;;;3.30;;
11100;SDS011;5604;50.722;7.078;2023-02-28T01:55:51;7.30;;;4.20;;
11100;SDS011;5604;50.722;7.078;2023-02-28T01:58:21;5.33;;;3.90;;
11100;SDS011;5604;50.722;7.078;2023-02-28T02:00:50;4.97;;;3.27;;
11100;SDS011;5604;50.722;7.078;2023-02-28T02:03:18;6.13;;;3.30;;
11100;SDS011;5604;50.722;7.078;2023-02-28T02:05:48;3.80;;;3.27;;
11100;SDS011;5604;50.722;7.078;2023-02-28T02:08:17;5.97;;;3.93;;
11100;SDS011;5604;50.722;7.078;2023-02-28T02:10:47;6.53;;;3.60;;
11100;SDS011;5604;50.722;7.078;2023-02-28T02:13:20;5.23;;;3.83;;
11100;SDS011;5604;50.722;7.078;2023-02-28T02:16:00;6.37;;;3.13;;
11100;SDS011;5604;50.722;7.078;2023-02-28T02:18:36;3.67;;;3.37;;
11100;SDS011;5604;50.722;7.078;2023-02-28T02:21:17;3.93;;;3.10;;
11100;SDS011;5604;50.722;7.078;2023-02-28T02:24:03;5.87;;;3.27;;
11100;SDS011;5604;50.722;7.078;2023-02-28T02:35:26;5.03;;;3.40;;
11100;SDS011;5604;50.722;7.078;2023-02-28T02:37:59;4.63;;;2.93;;
11100;SDS011;5604;50.722;7.078;2023-02-28T02:40:30;3.80;;;3.50;;
11100;SDS011;5604;50.722;7.078;2023-02-28T02:43:04;4.00;;;3.43;;
11100;SDS011;5604;50.722;7.078;2023-02-28T02:45:36;5.53;;;3.17;;
11100;SDS011;5604;50.722;7.078;2023-02-28T02:48:06;3.53;;;3.17;;
11100;SDS011;5604;50.722;7.078;2023-02-28T02:50:38;5.90;;;3.60;;
11100;SDS011;5604;50.722;7.078;2023-02-28T02:53:09;3.50;;;3.20;;
11100;SDS011;5604;50.722;7.078;2023-02-28T02:55:39;5.47;;;3.20;;
11100;SDS011;5604;50.722;7.078;2023-02-28T02:58:10;5.23;;;3.30;;
11100;SDS011;5604;50.722;7.078;2023-02-28T03:00:42;3.70;;;3.40;;
11100;SDS011;5604;50.722;7.078;2023-02-28T03:03:13;3.77;;;3.13;;
11100;SDS011;5604;50.722;7.078;2023-02-28T03:05:46;6.30;;;3.30;;
11100;SDS011;5604;50.722;7.078;2023-02-28T03:08:15;5.20;;;3.20;;
11100;SDS011;5604;50.722;7.078;2023-02-28T03:10:45;5.63;;;3.50;;
11100;SDS011;5604;50.722;7.078;2023-02-28T03:13:20;7.03;;;3.43;;
11100;SDS011;5604;50.722;7.078;2023-02-28T03:16:03;3.27;;;2.90;;
11100;SDS011;5604;50.722;7.078;2023-02-28T03:18:42;6.03;;;4.00;;
11100;SDS011;5604;50.722;7.078;2023-02-28T03:21:15;7.53;;;4.40;;
11100;SDS011;5604;50.722;7.078;2023-02-28T03:23:52;3.73;;;3.43;;
11100;SDS011;5604;50.722;7.078;2023-02-28T03:26:23;4.80;;;3.47;;
11100;SDS011;5604;50.722;7.078;2023-02-28T03:28:55;3.40;;;3.10;;
11100;SDS011;5604;50.722;7.078;2023-02-28T03:31:30;4.70;;;3.40;;
11100;SDS011;5604;50.722;7.078;2023-02-28T03:34:01;6.30;;;3.90;;
11100;SDS011;5604;50.722;7.078;2023-02-28T03:36:34;4.33;;;3.60;;
11100;SDS011;5604;50.722;7.078;2023-02-28T03:39:11;4.30;;;3.47;;
11100;SDS011;5604;50.722;7.078;2023-02-28T03:41:42;4.90;;;3.70;;
11100;SDS011;5604;50.722;7.078;2023-02-28T03:44:15;4.50;;;3.60;;
11100;SDS011;5604;50.722;7.078;2023-02-28T03:46:45;4.23;;;3.83;;
11100;SDS011;5604;50.722;7.078;2023-02-28T03:49:17;5.90;;;3.70;;
11100;SDS011;5604;50.722;7.078;2023-02-28T03:51:48;6.00;;;4.20;;
11100;SDS011;5604;50.722;7.078;2023-02-28T03:54:18;6.93;;;4.17;;
11100;SDS011;5604;50.722;7.078;2023-02-28T03:56:51;5.67;;;3.83;;
11100;SDS011;5604;50.722;7.078;2023-02-28T03:59:22;4.63;;;3.93;;
11100;SDS011;5604;50.722;7.078;2023-02-28T04:01:53;4.50;;;4.03;;
11100;SDS011;5604;50.722;7.078;2023-02-28T04:04:21;6.00;;;4.07;;
11100;SDS011;5604;50.722;7.078;2023-02-28T04:06:51;6.67;;;4.00;;
11100;SDS011;5604;50.722;7.078;2023-02-28T04:09:19;5.43;;;4.10;;
11100;SDS011;5604;50.722;7.078;2023-02-28T04:11:49;4.93;;;3.50;;
11100;SDS011;5604;50.722;7.078;2023-02-28T04:14:19;4.50;;;4.10;;
11100;SDS011;5604;50.722;7.078;2023-02-28T04:16:47;4.70;;;3.50;;
11100;SDS011;5604;50.722;7.078;2023-02-28T04:19:15;8.50;;;4.30;;
11100;SDS011;5604;50.722;7.078;2023-02-28T04:21:43;8.47;;;4.07;;
11100;SDS011;5604;50.722;7.078;2023-02-28T04:24:14;4.10;;;3.50;;
11100;SDS011;5604;50.722;7.078;2023-02-28T04:26:43;5.83;;;4.50;;
11100;SDS011;5604;50.722;7.078;2023-02-28T04:29:13;5.23;;;3.90;;
11100;SDS011;5604;50.722;7.078;2023-02-28T04:31:43;5.00;;;3.43;;
11100;SDS011;5604;50.722;7.078;2023-02-28T04:34:11;3.93;;;3.33;;
11100;SDS011;5604;50.722;7.078;2023-02-28T04:36:39;6.63;;;3.73;;
11100;SDS011;5604;50.722;7.078;2023-02-28T04:39:08;5.33;;;3.97;;
11100;SDS011;5604;50.722;7.078;2023-02-28T04:41:38;7.83;;;4.47;;
11100;SDS011;5604;50.722;7.078;2023-02-28T04:44:06;5.43;;;4.57;;
11100;SDS011;5604;50.722;7.078;2023-02-28T04:46:34;3.93;;;3.60;;
11100;SDS011;5604;50.722;7.078;2023-02-28T04:49:03;6.10;;;4.13;;
11100;SDS011;5604;50.722;7.078;2023-02-28T04:51:31;6.17;;;4.23;;
11100;SDS011;5604;50.722;7.078;2023-02-28T04:53:59;5.60;;;4.17;;
11100;SDS011;5604;50.722;7.078;2023-02-28T04:56:27;3.83;;;3.53;;
11100;SDS011;5604;50.722;7.078;2023-02-28T04:58:56;5.23;;;3.87;;
11100;SDS011;5604;50.722;7.078;2023-02-28T05:01:25;9.57;;;4.53;;
11100;SDS011;5604;50.722;7.078;2023-02-28T05:03:55;5.50;;;4.20;;
11100;SDS011;5604;50.722;7.078;2023-02-28T05:06:24;4.73;;;3.83;;
11100;SDS011;5604;50.722;7.078;2023-02-28T05:08:54;6.83;;;3.70;;
11100;SDS011;5604;50.722;7.078;2023-02-28T05:11:23;6.00;;;4.03;;
11100;SDS011;5604;50.722;7.078;2023-02-28T05:13:52;9.07;;;4.30;;
11100;SDS011;5604;50.722;7.078;2023-02-28T05:16:23;5.33;;;4.40;;
11100;SDS011;5604;50.722;7.078;2023-02-28T05:18:51;4.70;;;4.20;;
11100;SDS011;5604;50.722;7.078;2023-02-28T05:21:25;9.97;;;4.03;;
11100;SDS011;5604;50.722;7.078;2023-02-28T05:23:55;5.33;;;3.70;;
11100;SDS011;5604;50.722;7.078;2023-02-28T05:26:24;6.87;;;4.53;;
11100;SDS011;5604;50.722;7.078;2023-02-28T05:28:53;5.93;;;4.00;;
11100;SDS011;5604;50.722;7.078;2023-02-28T05:31:22;4.20;;;3.80;;
11100;SDS011;5604;50.722;7.078;2023-02-28T05:33:51;7.63;;;4.20;;
11100;SDS011;5604;50.722;7.078;2023-02-28T05:36:21;7.93;;;4.20;;
11100;SDS011;5604;50.722;7.078;2023-02-28T05:38:49;4.57;;;4.17;;
11100;SDS011;5604;50.722;7.078;2023-02-28T05:41:18;5.47;;;4.10;;
11100;SDS011;5604;50.722;7.078;2023-02-28T05:43:47;7.53;;;4.33;;
11100;SDS011;5604;50.722;7.078;2023-02-28T05:46:16;5.00;;;4.27;;
11100;SDS011;5604;50.722;7.078;2023-02-28T05:48:47;5.87;;;4.00;;
11100;SDS011;5604;50.722;7.078;2023-02-28T05:51:17;5.07;;;3.90;;
11100;SDS011;5604;50.722;7.078;2023-02-28T05:53:45;5.37;;;4.17;;
11100;SDS011;5604;50.722;7.078;2023-02-28T05:56:14;4.47;;;3.60;;
11100;SDS011;5604;50.722;7.078;2023-02-28T05:58:43;4.40;;;4.00;;
11100;SDS011;5604;50.722;7.078;2023-02-28T06:01:21;4.33;;;3.93;;
11100;SDS011;5604;50.722;7.078;2023-02-28T06:03:53;7.13;;;4.03;;
11100;SDS011;5604;50.722;7.078;2023-02-28T06:06:21;4.80;;;3.67;;
11100;SDS011;5604;50.722;7.078;2023-02-28T06:08:49;4.50;;;4.10;;
11100;SDS011;5604;50.722;7.078;2023-02-28T06:11:17;4.40;;;4.00;;
11100;SDS011;5604;50.722;7.078;2023-02-28T06:13:46;6.40;;;3.77;;
11100;SDS011;5604;50.722;7.078;2023-02-28T06:16:15;4.53;;;4.13;;
11100;SDS011;5604;50.722;7.078;2023-02-28T06:18:43;5.67;;;4.00;;
11100;SDS011;5604;50.722;7.078;2023-02-28T06:21:13;4.03;;;3.70;;
11100;SDS011;5604;50.722;7.078;2023-02-28T06:23:41;8.47;;;4.20;;
11100;SDS011;5604;50.722;7.078;2023-02-28T06:26:10;8.03;;;4.23;;
11100;SDS011;5604;50.722;7.078;2023-02-28T06:28:38;4.73;;;4.30;;
11100;SDS011;5604;50.722;7.078;2023-02-28T06:31:07;5.13;;;4.20;;
11100;SDS011;5604;50.722;7.078;2023-02-28T06:33:36;4.30;;;3.90;;
11100;SDS011;5604;50.722;7.078;2023-02-28T06:36:05;8.80;;;4.43;;
11100;SDS011;5604;50.722;7.078;2023-02-28T06:38:36;6.73;;;4.07;;
11100;SDS011;5604;50.722;7.078;2023-02-28T06:41:04;4.10;;;3.77;;
11100;SDS011;5604;50.722;7.078;2023-02-28T06:43:33;4.67;;;4.13;;
11100;SDS011;5604;50.722;7.078;2023-02-28T06:46:04;4.40;;;4.00;;
11100;SDS011;5604;50.722;7.078;2023-02-28T06:48:34;4.70;;;4.20;;
11100;SDS011;5604;50.722;7.078;2023-02-28T06:51:03;7.37;;;4.53;;
11100;SDS011;5604;50.722;7.078;2023-02-28T06:53:32;5.20;;;4.20;;
11100;SDS011;5604;50.722;7.078;2023-02-28T06:56:06;6.17;;;4.70;;
11100;SDS011;5604;50.722;7.078;2023-02-28T06:58:36;5.07;;;3.83;;
11100;SDS011;5604;50.722;7.078;2023-02-28T07:01:05;6.70;;;4.43;;
11100;SDS011;5604;50.722;7.078;2023-02-28T07:03:34;5.73;;;4.57;;
11100;SDS011;5604;50.722;7.078;2023-02-28T07:06:04;6.83;;;4.27;;
11100;SDS011;5604;50.722;7.078;2023-02-28T07:08:33;5.80;;;4.07;;
11100;SDS011;5604;50.722;7.078;2023-02-28T07:11:03;5.83;;;4.23;;
11100;SDS011;5604;50.722;7.078;2023-02-28T07:13:32;7.30;;;4.53;;
11100;SDS011;5604;50.722;7.078;2023-02-28T07:16:01;5.20;;;4.80;;
11100;SDS011;5604;50.722;7.078;2023-02-28T07:18:30;4.47;;;4.03;;
11100;SDS011;5604;50.722;7.078;2023-02-28T07:20:58;10.63;;;6.23;;
11100;SDS011;5604;50.722;7.078;2023-02-28T07:23:29;5.53;;;4.57;;
11100;SDS011;5604;50.722;7.078;2023-02-28T07:25:57;6.23;;;4.40;;
11100;SDS011;5604;50.722;7.078;2023-02-28T07:28:27;9.33;;;4.57;;
11100;SDS011;5604;50.722;7.078;2023-02-28T07:30:56;6.90;;;4.50;;
11100;SDS011;5604;50.722;7.078;2023-02-28T07:33:25;8.77;;;3.83;;
11100;SDS011;5604;50.722;7.078;2023-02-28T07:35:59;4.40;;;4.00;;
11100;SDS011;5604;50.722;7.078;2023-02-28T07:38:29;4.53;;;4.13;;
11100;SDS011;5604;50.722;7.078;2023-02-28T07:40:57;6.97;;;4.20;;
11100;SDS011;5604;50.722;7.078;2023-02-28T07:43:27;6.33;;;4.27;;
11100;SDS011;5604;50.722;7.078;2023-02-28T07:45:55;4.80;;;3.60;;
11100;SDS011;5604;50.722;7.078;2023-02-28T07:48:23;5.93;;;3.70;;
11100;SDS011;5604;50.722;7.078;2023-02-28T07:50:54;6.93;;;4.07;;
11100;SDS011;5604;50.722;7.078;2023-02-28T07:53:22;4.67;;;3.97;;
11100;SDS011;5604;50.722;7.078;2023-02-28T07:55:51;7.70;;;4.03;;
11100;SDS011;5604;50.722;7.078;2023-02-28T07:58:22;5.73;;;3.57;;
11100;SDS011;5604;50.722;7.078;2023-02-28T08:00:52;8.33;;;4.00;;
11100;SDS011;5604;50.722;7.078;2023-02-28T08:03:21;4.03;;;3.60;;
11100;SDS011;5604;50.722;7.078;2023-02-28T08:05:50;7.17;;;4.10;;
11100;SDS011;5604;50.722;7.078;2023-02-28T08:08:19;4.17;;;3.77;;
11100;SDS011;5604;50.722;7.078;2023-02-28T08:10:47;5.33;;;4.30;;
11100;SDS011;5604;50.722;7.078;2023-02-28T08:13:15;5.17;;;3.83;;
11100;SDS011;5604;50.722;7.078;2023-02-28T08:15:43;4.60;;;3.70;;
11100;SDS011;5604;50.722;7.078;2023-02-28T08:18:15;4.83;;;3.90;;
11100;SDS011;5604;50.722;7.078;2023-02-28T08:20:44;4.07;;;3.40;;
11100;SDS011;5604;50.722;7.078;2023-02-28T08:23:12;4.83;;;3.53;;
11100;SDS011;5604;50.722;7.078;2023-02-28T08:25:45;5.27;;;3.70;;
11100;SDS011;5604;50.722;7.078;2023-02-28T08:28:20;3.50;;;3.17;;
11100;SDS011;5604;50.722;7.078;2023-02-28T08:30:51;5.97;;;3.07;;
11100;SDS011;5604;50.722;7.078;2023-02-28T08:33:21;4.63;;;2.93;;
11100;SDS011;5604;50.722;7.078;2023-02-28T08:35:52;4.23;;;3.20;;
11100;SDS011;5604;50.722;7.078;2023-02-28T08:38:22;3.33;;;3.03;;
11100;SDS011;5604;50.722;7.078;2023-02-28T08:40:56;3.30;;;3.00;;
11100;SDS011;5604;50.722;7.078;2023-02-28T08:43:25;3.13;;;2.70;;
11100;SDS011;5604;50.722;7.078;2023-02-28T08:45:56;3.30;;;3.00;;
11100;SDS011;5604;50.722;7.078;2023-02-28T08:48:27;4.63;;;3.13;;
11100;SDS011;5604;50.722;7.078;2023-02-28T08:50:56;5.23;;;3.13;;
11100;SDS011;5604;50.722;7.078;2023-02-28T08:53:33;4.37;;;3.03;;
11100;SDS011;5604;50.722;7.078;2023-02-28T08:56:02;3.70;;;3.07;;
11100;SDS011;5604;50.722;7.078;2023-02-28T08:58:32;3.30;;;2.87;;
11100;SDS011;5604;50.722;7.078;2023-02-28T09:01:06;3.93;;;2.80;;
11100;SDS011;5604;50.722;7.078;2023-02-28T09:03:37;3.57;;;2.63;;
11100;SDS011;5604;50.722;7.078;2023-02-28T09:06:08;5.27;;;2.80;;
11100;SDS011;5604;50.722;7.078;2023-02-28T09:08:37;4.73;;;2.73;;
11100;SDS011;5604;50.722;7.078;2023-02-28T09:11:06;3.37;;;3.13;;
11100;SDS011;5604;50.722;7.078;2023-02-28T09:13:35;4.73;;;3.00;;
11100;SDS011;5604;50.722;7.078;2023-02-28T09:16:06;5.90;;;2.60;;
11100;SDS011;5604;50.722;7.078;2023-02-28T09:18:37;3.33;;;2.57;;
11100;SDS011;5604;50.722;7.078;2023-02-28T09:21:06;2.67;;;2.47;;
11100;SDS011;5604;50.722;7.078;2023-02-28T09:23:35;2.60;;;2.40;;
11100;SDS011;5604;50.722;7.078;2023-02-28T09:26:04;3.57;;;2.50;;
11100;SDS011;5604;50.722;7.078;2023-02-28T09:28:33;5.50;;;2.70;;
11100;SDS011;5604;50.722;7.078;2023-02-28T09:31:01;4.17;;;2.63;;
11100;SDS011;5604;50.722;7.078;2023-02-28T09:33:31;3.27;;;2.40;;
11100;SDS011;5604;50.722;7.078;2023-02-28T09:36:02;5.30;;;2.50;;
11100;SDS011;5604;50.722;7.078;2023-02-28T09:38:31;4.83;;;2.50;;
11100;SDS011;5604;50.722;7.078;2023-02-28T09:41:03;4.57;;;2.33;;
11100;SDS011;5604;50.722;7.078;2023-02-28T09:43:38;4.13;;;2.47;;
11100;SDS011;5604;50.722;7.078;2023-02-28T09:46:11;4.73;;;2.50;;
11100;SDS011;5604;50.722;7.078;2023-02-28T09:48:49;2.00;;;1.90;;
11100;SDS011;5604;50.722;7.078;2023-02-28T09:51:26;2.67;;;2.30;;
11100;SDS011;5604;50.722;7.078;2023-02-28T09:54:02;2.70;;;2.50;;
11100;SDS011;5604;50.722;7.078;2023-02-28T09:56:31;6.33;;;2.57;;
11100;SDS011;5604;50.722;7.078;2023-02-28T09:59:02;3.07;;;2.57;;
11100;SDS011;5604;50.722;7.078;2023-02-28T10:01:35;2.97;;;2.27;;
11100;SDS011;5604;50.722;7.078;2023-02-28T10:04:08;2.73;;;2.50;;
11100;SDS011;5604;50.722;7.078;2023-02-28T10:06:43;2.17;;;2.00;;
11100;SDS011;5604;50.722;7.078;2023-02-28T10:09:13;2.90;;;2.20;;
11100;SDS011;5604;50.722;7.078;2023-02-28T10:11:45;3.37;;;2.30;;
11100;SDS011;5604;50.722;7.078;2023-02-28T10:14:15;3.80;;;2.50;;
11100;SDS011;5604;50.722;7.078;2023-02-28T10:16:45;3.10;;;2.20;;
11100;SDS011;5604;50.722;7.078;2023-02-28T10:19:19;4.33;;;2.20;;
11100;SDS011;5604;50.722;7.078;2023-02-28T10:21:53;3.60;;;2.10;;
11100;SDS011;5604;50.722;7.078;2023-02-28T10:24:26;4.87;;;2.40;;
11100;SDS011;5604;50.722;7.078;2023-02-28T10:26:59;3.13;;;2.07;;
11100;SDS011;5604;50.722;7.078;2023-02-28T10:29:29;8.43;;;2.67;;
11100;SDS011;5604;50.722;7.078;2023-02-28T10:32:00;3.70;;;2.20;;
11100;SDS011;5604;50.722;7.078;2023-02-28T10:34:30;2.87;;;2.10;;
11100;SDS011;5604;50.722;7.078;2023-02-28T10:36:59;5.03;;;2.50;;
11100;SDS011;5604;50.722;7.078;2023-02-28T10:39:35;3.43;;;2.47;;
11100;SDS011;5604;50.722;7.078;2023-02-28T10:42:18;2.77;;;2.53;;
11100;SDS011;5604;50.722;7.078;2023-02-28T10:45:09;3.93;;;2.50;;
11100;SDS011;5604;50.722;7.078;2023-02-28T10:47:41;4.33;;;2.30;;
11100;SDS011;5604;50.722;7.078;2023-02-28T10:50:26;4.33;;;2.60;;
11100;SDS011;5604;50.722;7.078;2023-02-28T10:52:58;2.30;;;2.10;;
11100;SDS011;5604;50.722;7.078;2023-02-28T10:55:35;3.17;;;2.30;;
11100;SDS011;5604;50.722;7.078;2023-02-28T10:58:08;2.90;;;2.40;;
11100;SDS011;5604;50.722;7.078;2023-02-28T11:00:48;4.47;;;2.40;;
11100;SDS011;5604;50.722;7.078;2023-02-28T11:03:24;2.30;;;2.03;;
11100;SDS011;5604;50.722;7.078;2023-02-28T11:05:56;3.27;;;2.23;;
11100;SDS011;5604;50.722;7.078;2023-02-28T11:08:26;2.90;;;2.47;;
11100;SDS011;5604;50.722;7.078;2023-02-28T11:10:54;2.43;;;2.20;;
11100;SDS011;5604;50.722;7.078;2023-02-28T11:13:25;2.10;;;2.00;;
11100;SDS011;5604;50.722;7.078;2023-02-28T11:15:55;3.27;;;2.30;;
11100;SDS011;5604;50.722;7.078;2023-02-28T11:18:27;3.10;;;2.10;;
11100;SDS011;5604;50.722;7.078;2023-02-28T11:20:57;2.70;;;2.23;;
11100;SDS011;5604;50.722;7.078;2023-02-28T11:23:29;3.03;;;2.23;;
11100;SDS011;5604;50.722;7.078;2023-02-28T11:25:59;4.27;;;2.50;;
11100;SDS011;5604;50.722;7.078;2023-02-28T11:28:30;2.93;;;2.50;;
11100;SDS011;5604;50.722;7.078;2023-02-28T11:30:59;4.63;;;2.63;;
11100;SDS011;5604;50.722;7.078;2023-02-28T11:33:30;4.80;;;2.67;;
11100;SDS011;5604;50.722;7.078;2023-02-28T11:36:00;3.10;;;2.50;;
11100;SDS011;5604;50.722;7.078;2023-02-28T11:38:32;3.73;;;2.40;;
11100;SDS011;5604;50.722;7.078;2023-02-28T11:41:05;2.37;;;2.17;;
11100;SDS011;5604;50.722;7.078;2023-02-28T11:43:45;7.53;;;2.60;;
11100;SDS011;5604;50.722;7.078;2023-02-28T11:46:25;4.30;;;2.93;;
11100;SDS011;5604;50.722;7.078;2023-02-28T11:48:58;3.00;;;2.70;;
11100;SDS011;5604;50.722;7.078;2023-02-28T11:51:32;3.57;;;2.53;;
11100;SDS011;5604;50.722;7.078;2023-02-28T11:54:08;2.33;;;2.17;;
11100;SDS011;5604;50.722;7.078;2023-02-28T11:56:47;2.70;;;2.50;;
11100;SDS011;5604;50.722;7.078;2023-02-28T11:59:22;2.57;;;2.37;;
11100;SDS011;5604;50.722;7.078;2023-02-28T12:02:10;2.60;;;2.40;;
11100;SDS011;5604;50.722;7.078;2023-02-28T12:04:51;3.23;;;2.30;;
11100;SDS011;5604;50.722;7.078;2023-02-28T12:07:24;4.13;;;2.57;;
11100;SDS011;5604;50.722;7.078;2023-02-28T12:10:02;2.73;;;2.53;;
11100;SDS011;5604;50.722;7.078;2023-02-28T12:12:38;3.33;;;2.80;;
11100;SDS011;5604;50.722;7.078;2023-02-28T12:15:28;2.90;;;2.43;;
11100;SDS011;5604;50.722;7.078;2023-02-28T12:18:10;2.93;;;2.50;;
11100;SDS011;5604;50.722;7.078;2023-02-28T12:20:48;3.17;;;2.43;;
11100;SDS011;5604;50.722;7.078;2023-02-28T12:23:22;3.00;;;2.70;;
11100;SDS011;5604;50.722;7.078;2023-02-28T12:26:08;3.90;;;2.30;;
11100;SDS011;5604;50.722;7.078;2023-02-28T12:28:41;3.20;;;2.80;;
11100;SDS011;5604;50.722;7.078;2023-02-28T12:31:11;2.67;;;2.10;;
11100;SDS011;5604;50.722;7.078;2023-02-28T12:33:45;2.97;;;2.67;;
11100;SDS011;5604;50.722;7.078;2023-02-28T12:36:16;3.43;;;3.00;;
11100;SDS011;5604;50.722;7.078;2023-02-28T12:38:49;3.37;;;2.33;;
11100;SDS011;5604;50.722;7.078;2023-02-28T12:41:25;2.70;;;2.50;;
11100;SDS011;5604;50.722;7.078;2023-02-28T12:44:09;2.10;;;1.93;;
11100;SDS011;5604;50.722;7.078;2023-02-28T12:46:40;2.50;;;2.30;;
11100;SDS011;5604;50.722;7.078;2023-02-28T12:49:10;2.37;;;2.17;;
11100;SDS011;5604;50.722;7.078;2023-02-28T12:51:41;2.67;;;2.43;;
11100;SDS011;5604;50.722;7.078;2023-02-28T12:54:12;3.63;;;2.50;;
11100;SDS011;5604;50.722;7.078;2023-02-28T12:56:49;3.27;;;2.40;;
11100;SDS011;5604;50.722;7.078;2023-02-28T12:59:23;2.53;;;2.20;;
11100;SDS011;5604;50.722;7.078;2023-02-28T13:01:57;4.17;;;2.40;;
11100;SDS011;5604;50.722;7.078;2023-02-28T13:04:34;3.03;;;2.43;;
11100;SDS011;5604;50.722;7.078;2023-02-28T13:07:13;2.83;;;2.37;;
11100;SDS011;5604;50.722;7.078;2023-02-28T13:09:52;3.90;;;2.20;;
11100;SDS011;5604;50.722;7.078;2023-02-28T13:12:23;2.50;;;2.30;;
11100;SDS011;5604;50.722;7.078;2023-02-28T13:14:51;3.97;;;2.50;;
11100;SDS011;5604;50.722;7.078;2023-02-28T13:17:31;4.20;;;2.50;;
11100;SDS011;5604;50.722;7.078;2023-02-28T13:20:00;3.87;;;2.53;;
11100;SDS011;5604;50.722;7.078;2023-02-28T13:22:36;2.73;;;2.53;;
11100;SDS011;5604;50.722;7.078;2023-02-28T13:31:29;2.53;;;2.33;;
11100;SDS011;5604;50.722;7.078;2023-02-28T13:36:46;3.10;;;2.80;;
11100;SDS011;5604;50.722;7.078;2023-02-28T13:42:22;3.63;;;2.83;;
11100;SDS011;5604;50.722;7.078;2023-02-28T13:47:52;2.80;;;2.60;;
11100;SDS011;5604;50.722;7.078;2023-02-28T13:50:23;2.73;;;2.50;;
11100;SDS011;5604;50.722;7.078;2023-02-28T13:56:11;3.90;;;2.67;;
11100;SDS011;5604;50.722;7.078;2023-02-28T13:58:50;2.97;;;2.53;;
11100;SDS011;5604;50.722;7.078;2023-02-28T14:01:26;2.80;;;2.50;;
11100;SDS011;5604;50.722;7.078;2023-02-28T14:04:12;2.97;;;2.70;;
11100;SDS011;5604;50.722;7.078;2023-02-28T14:07:16;6.43;;;3.20;;
11100;SDS011;5604;50.722;7.078;2023-02-28T14:09:46;3.03;;;2.67;;
11100;SDS011;5604;50.722;7.078;2023-02-28T14:15:30;3.43;;;2.90;;
11100;SDS011;5604;50.722;7.078;2023-02-28T14:18:13;3.67;;;2.77;;
11100;SDS011;5604;50.722;7.078;2023-02-28T14:20:47;3.30;;;3.00;;
11100;SDS011;5604;50.722;7.078;2023-02-28T14:23:20;4.03;;;2.80;;
11100;SDS011;5604;50.722;7.078;2023-02-28T14:26:00;3.20;;;2.90;;
11100;SDS011;5604;50.722;7.078;2023-02-28T14:28:39;2.93;;;2.73;;
11100;SDS011;5604;50.722;7.078;2023-02-28T14:31:16;5.10;;;3.03;;
11100;SDS011;5604;50.722;7.078;2023-02-28T14:33:57;4.73;;;3.10;;
11100;SDS011;5604;50.722;7.078;2023-02-28T14:36:32;3.40;;;2.93;;
11100;SDS011;5604;50.722;7.078;2023-02-28T14:39:05;3.17;;;2.97;;
11100;SDS011;5604;50.722;7.078;2023-02-28T14:41:35;3.87;;;3.43;;
11100;SDS011;5604;50.722;7.078;2023-02-28T14:44:13;5.00;;;3.40;;
11100;SDS011;5604;50.722;7.078;2023-02-28T14:46:42;5.00;;;3.40;;
11100;SDS011;5604;50.722;7.078;2023-02-28T14:49:15;3.67;;;3.37;;
11100;SDS011;5604;50.722;7.078;2023-02-28T14:51:45;4.07;;;3.23;;
11100;SDS011;5604;50.722;7.078;2023-02-28T14:54:15;3.60;;;2.93;;
11100;SDS011;5604;50.722;7.078;2023-02-28T14:56:48;4.13;;;3.63;;
11100;SDS011;5604;50.722;7.078;2023-02-28T14:59:24;3.27;;;3.00;;
11100;SDS011;5604;50.722;7.078;2023-02-28T15:04:58;4.50;;;3.37;;
11100;SDS011;5604;50.722;7.078;2023-02-28T15:07:27;4.80;;;3.53;;
11100;SDS011;5604;50.722;7.078;2023-02-28T15:10:14;3.57;;;3.20;;
11100;SDS011;5604;50.722;7.078;2023-02-28T15:12:48;4.13;;;3.73;;
11100;SDS011;5604;50.722;7.078;2023-02-28T15:15:19;4.43;;;3.23;;
11100;SDS011;5604;50.722;7.078;2023-02-28T15:18:05;4.03;;;3.63;;
11100;SDS011;5604;50.722;7.078;2023-02-28T15:20:37;4.03;;;3.50;;
11100;SDS011;5604;50.722;7.078;2023-02-28T15:23:06;3.73;;;3.33;;
11100;SDS011;5604;50.722;7.078;2023-02-28T15:25:35;4.80;;;3.50;;
11100;SDS011;5604;50.722;7.078;2023-02-28T15:28:03;3.83;;;3.53;;
11100;SDS011;5604;50.722;7.078;2023-02-28T15:30:31;3.93;;;3.33;;
11100;SDS011;5604;50.722;7.078;2023-02-28T15:33:14;4.13;;;3.70;;
11100;SDS011;5604;50.722;7.078;2023-02-28T15:35:48;4.33;;;3.50;;
11100;SDS011;5604;50.722;7.078;2023-02-28T15:38:18;4.47;;;4.00;;
11100;SDS011;5604;50.722;7.078;2023-02-28T15:40:51;4.87;;;4.00;;
11100;SDS011;5604;50.722;7.078;2023-02-28T15:43:24;4.43;;;4.03;;
11100;SDS011;5604;50.722;7.078;2023-02-28T15:45:55;3.60;;;3.30;;
11100;SDS011;5604;50.722;7.078;2023-02-28T15:48:25;5.00;;;3.80;;
11100;SDS011;5604;50.722;7.078;2023-02-28T15:50:57;4.93;;;3.77;;
11100;SDS011;5604;50.722;7.078;2023-02-28T15:53:30;4.90;;;3.30;;
11100;SDS011;5604;50.722;7.078;2023-02-28T15:56:00;3.70;;;3.40;;
11100;SDS011;5604;50.722;7.078;2023-02-28T15:58:29;5.37;;;3.57;;
11100;SDS011;5604;50.722;7.078;2023-02-28T16:01:04;4.87;;;3.70;;